createdAt,value
2017-08-21T00:02:21.969Z,3.93
2017-08-21T00:04:51.267Z,3.87
2017-08-21T00:07:19.169Z,3.20
2017-08-21T00:09:49.248Z,3.60
2017-08-21T00:12:16.928Z,4.10
2017-08-21T00:14:44.522Z,3.80
2017-08-21T00:17:12.162Z,3.97
2017-08-21T00:19:39.775Z,4.53
2017-08-21T00:22:10.059Z,4.90
2017-08-21T00:24:37.815Z,4.30
2017-08-21T00:27:05.490Z,3.13
2017-08-21T00:29:33.077Z,3.93
2017-08-21T00:32:00.737Z,3.90
2017-08-21T00:34:28.342Z,3.67
2017-08-21T00:36:55.988Z,3.27
2017-08-21T00:39:23.595Z,4.93
2017-08-21T00:41:52.230Z,3.50
2017-08-21T00:44:19.910Z,3.30
2017-08-21T00:46:47.514Z,3.30
2017-08-21T00:49:15.193Z,3.30
2017-08-21T00:51:42.878Z,3.93
2017-08-21T00:54:11.467Z,4.20
2017-08-21T00:56:39.088Z,4.07
2017-08-21T00:59:07.805Z,4.23
2017-08-21T01:01:35.548Z,4.17
2017-08-21T01:04:03.680Z,4.20
2017-08-21T01:06:32.442Z,3.60
2017-08-21T01:09:00.196Z,3.63
2017-08-21T01:11:27.784Z,3.90
2017-08-21T01:13:55.399Z,4.00
2017-08-21T01:16:23.008Z,4.23
2017-08-21T01:18:50.664Z,4.60
2017-08-21T01:21:18.348Z,3.97
2017-08-21T01:23:45.971Z,4.27
2017-08-21T01:26:13.585Z,4.80
2017-08-21T01:28:41.175Z,4.77
2017-08-21T01:31:08.797Z,4.47
2017-08-21T01:33:36.431Z,4.50
2017-08-21T01:36:04.060Z,4.63
2017-08-21T01:38:32.690Z,3.90
2017-08-21T01:41:00.308Z,3.60
2017-08-21T01:43:27.973Z,4.23
2017-08-21T01:45:55.583Z,4.80
2017-08-21T01:48:23.174Z,3.50
2017-08-21T01:50:51.154Z,4.00
2017-08-21T01:53:18.847Z,4.37
2017-08-21T01:55:46.533Z,4.10
2017-08-21T01:58:14.140Z,3.20
2017-08-21T02:00:41.742Z,3.60
2017-08-21T02:03:09.419Z,3.67
2017-08-21T02:05:38.050Z,3.20
2017-08-21T02:08:05.682Z,3.10
2017-08-21T02:10:33.320Z,3.60
2017-08-21T02:13:00.918Z,3.50
2017-08-21T02:15:28.512Z,3.40
2017-08-21T02:17:56.151Z,3.50
2017-08-21T02:20:23.836Z,4.13
2017-08-21T02:22:51.706Z,3.77
2017-08-21T02:25:19.401Z,3.63
2017-08-21T02:27:47.036Z,3.73
2017-08-21T02:30:14.640Z,3.47
2017-08-21T02:32:42.250Z,3.27
2017-08-21T02:35:09.921Z,3.90
2017-08-21T02:37:37.510Z,4.00
2017-08-21T02:40:05.143Z,3.63
2017-08-21T02:42:32.770Z,3.90
2017-08-21T02:45:00.390Z,3.53
2017-08-21T02:47:28.052Z,3.50
2017-08-21T02:49:55.669Z,3.60
2017-08-21T02:52:23.279Z,3.67
2017-08-21T02:54:50.922Z,3.67
2017-08-21T02:57:18.573Z,4.20
2017-08-21T02:59:46.198Z,3.10
2017-08-21T03:02:14.043Z,4.20
2017-08-21T03:04:42.028Z,3.23
2017-08-21T03:07:09.722Z,4.37
2017-08-21T03:09:37.454Z,2.93
2017-08-21T03:12:05.093Z,3.70
2017-08-21T03:14:32.748Z,3.10
2017-08-21T03:17:00.367Z,3.50
2017-08-21T03:19:28.047Z,2.80
2017-08-21T03:21:56.140Z,3.90
2017-08-21T03:24:23.804Z,3.90
2017-08-21T03:26:51.440Z,3.90
2017-08-21T03:29:19.053Z,3.70
2017-08-21T03:31:46.664Z,4.07
2017-08-21T03:34:14.315Z,4.00
2017-08-21T03:36:41.926Z,2.80
2017-08-21T03:39:09.599Z,2.80
2017-08-21T03:41:37.211Z,3.00
2017-08-21T03:44:04.822Z,3.60
2017-08-21T03:46:32.457Z,3.77
2017-08-21T03:49:00.050Z,3.50
2017-08-21T03:51:27.648Z,4.10
2017-08-21T03:53:55.295Z,3.80
2017-08-21T03:56:22.929Z,5.00
2017-08-21T03:58:50.529Z,4.77
2017-08-21T04:01:18.149Z,4.80
2017-08-21T04:03:45.750Z,4.67
2017-08-21T04:06:13.418Z,4.40
2017-08-21T04:08:41.088Z,4.70
2017-08-21T04:11:08.748Z,4.33
2017-08-21T04:13:36.335Z,4.03
2017-08-21T04:16:04.457Z,4.43
2017-08-21T04:18:33.218Z,4.10
2017-08-21T04:21:00.810Z,4.30
2017-08-21T04:23:28.412Z,4.10
2017-08-21T04:25:56.093Z,4.90
2017-08-21T04:28:24.709Z,4.00
2017-08-21T04:30:53.010Z,5.83
2017-08-21T04:33:20.664Z,4.67
2017-08-21T04:35:48.303Z,4.33
2017-08-21T04:38:15.949Z,5.00
2017-08-21T04:40:43.545Z,4.47
2017-08-21T04:43:11.164Z,4.17
2017-08-21T04:45:38.779Z,4.63
2017-08-21T04:48:06.381Z,4.00
2017-08-21T04:50:34.037Z,4.00
2017-08-21T04:53:02.836Z,3.50
2017-08-21T04:55:30.438Z,4.10
2017-08-21T04:57:58.258Z,4.40
2017-08-21T05:00:25.901Z,4.73
2017-08-21T05:02:53.589Z,4.60
2017-08-21T05:05:21.212Z,4.40
2017-08-21T05:07:49.830Z,4.17
2017-08-21T05:10:17.431Z,4.17
2017-08-21T05:12:46.079Z,4.40
2017-08-21T05:15:13.656Z,4.80
2017-08-21T05:17:41.311Z,4.03
2017-08-21T05:20:09.114Z,4.30
2017-08-21T05:22:36.784Z,4.27
2017-08-21T05:25:05.422Z,4.20
2017-08-21T05:27:33.039Z,4.10
2017-08-21T05:30:00.698Z,4.10
2017-08-21T05:32:28.311Z,3.83
2017-08-21T05:34:56.094Z,3.70
2017-08-21T05:37:23.740Z,3.50
2017-08-21T05:39:51.377Z,4.53
2017-08-21T05:42:19.010Z,4.00
2017-08-21T05:44:46.637Z,3.40
2017-08-21T05:47:14.259Z,4.17
2017-08-21T05:49:41.907Z,3.87
2017-08-21T05:52:09.523Z,3.80
2017-08-21T05:54:37.225Z,3.67
2017-08-21T05:57:04.827Z,2.60
2017-08-21T05:59:32.463Z,3.53
2017-08-21T06:02:00.081Z,3.47
2017-08-21T06:04:28.123Z,3.67
2017-08-21T06:06:55.779Z,3.60
2017-08-21T06:09:23.407Z,3.30
2017-08-21T06:11:51.033Z,3.77
2017-08-21T06:14:18.703Z,3.17
2017-08-21T06:16:46.325Z,3.87
2017-08-21T06:19:13.996Z,3.70
2017-08-21T06:21:41.652Z,4.20
2017-08-21T06:24:09.278Z,3.40
2017-08-21T06:26:36.937Z,3.83
2017-08-21T06:29:04.611Z,3.80
2017-08-21T06:31:32.265Z,3.13
2017-08-21T06:34:00.251Z,3.40
2017-08-21T06:36:27.882Z,3.80
2017-08-21T06:38:55.541Z,3.97
2017-08-21T06:41:23.250Z,4.17
2017-08-21T06:43:50.985Z,4.80
2017-08-21T06:46:18.958Z,4.40
2017-08-21T06:48:46.612Z,4.60
2017-08-21T06:51:14.248Z,4.00
2017-08-21T06:53:41.964Z,4.10
2017-08-21T06:56:09.583Z,4.07
2017-08-21T06:58:37.239Z,4.80
2017-08-21T07:01:04.851Z,4.37
2017-08-21T07:03:32.511Z,3.70
2017-08-21T07:06:00.113Z,4.03
2017-08-21T07:08:27.722Z,3.83
2017-08-21T07:10:55.363Z,3.90
2017-08-21T07:13:22.965Z,4.20
2017-08-21T07:15:50.584Z,4.37
2017-08-21T07:18:18.190Z,4.03
2017-08-21T07:20:45.786Z,3.97
2017-08-21T07:23:13.543Z,3.70
2017-08-21T07:25:41.170Z,3.80
2017-08-21T07:28:08.837Z,5.20
2017-08-21T07:30:36.451Z,3.10
2017-08-21T07:33:04.116Z,3.67
2017-08-21T07:35:33.224Z,3.53
2017-08-21T07:38:00.893Z,3.97
2017-08-21T07:40:28.530Z,3.60
2017-08-21T07:42:56.163Z,3.83
2017-08-21T07:45:23.818Z,3.97
2017-08-21T07:47:51.448Z,3.63
2017-08-21T07:50:19.393Z,3.23
2017-08-21T07:52:47.043Z,3.77
2017-08-21T07:55:14.810Z,3.30
2017-08-21T07:57:42.404Z,4.10
2017-08-21T08:23:09.014Z,4.17
2017-08-21T08:25:36.646Z,3.90
2017-08-21T08:28:04.277Z,4.00
2017-08-21T08:30:31.854Z,3.97
2017-08-21T08:32:59.475Z,4.30
2017-08-21T08:35:27.195Z,3.53
2017-08-21T08:37:54.834Z,4.27
2017-08-21T08:40:23.139Z,3.40
2017-08-21T08:42:50.785Z,3.50
2017-08-21T08:45:18.650Z,4.67
2017-08-21T08:47:46.289Z,3.80
2017-08-21T08:50:14.855Z,4.40
2017-08-21T08:52:42.462Z,4.17
2017-08-21T08:55:10.069Z,3.43
2017-08-21T08:57:37.729Z,4.00
2017-08-21T09:00:06.850Z,3.30
2017-08-21T09:02:41.507Z,4.20
2017-08-21T09:05:09.143Z,3.20
2017-08-21T09:07:36.769Z,3.77
2017-08-21T09:10:04.660Z,3.60
2017-08-21T09:12:32.315Z,3.67
2017-08-21T09:14:59.947Z,3.47
2017-08-21T09:17:27.590Z,3.40
2017-08-21T09:19:55.219Z,3.33
2017-08-21T09:22:23.215Z,3.50
2017-08-21T09:24:50.898Z,4.20
2017-08-21T09:27:18.541Z,3.60
2017-08-21T09:29:46.153Z,3.67
2017-08-21T09:32:13.804Z,3.90
2017-08-21T09:34:41.415Z,3.60
2017-08-21T09:37:09.177Z,3.30
2017-08-21T09:39:36.907Z,3.60
2017-08-21T09:42:05.059Z,3.10
2017-08-21T09:44:33.259Z,3.30
2017-08-21T09:47:01.033Z,4.53
2017-08-21T09:49:28.697Z,3.77
2017-08-21T09:51:56.404Z,3.27
2017-08-21T09:54:24.598Z,3.43
2017-08-21T09:56:52.330Z,3.70
2017-08-21T09:59:20.034Z,3.50
2017-08-21T10:01:47.687Z,3.30
2017-08-21T10:04:15.296Z,3.70
2017-08-21T10:06:42.967Z,3.70
2017-08-21T10:09:12.090Z,3.80
2017-08-21T10:11:39.860Z,3.27
2017-08-21T10:14:07.458Z,3.93
2017-08-21T10:16:35.117Z,4.17
2017-08-21T10:19:02.777Z,3.90
2017-08-21T10:21:30.964Z,4.20
2017-08-21T10:23:59.511Z,3.70
2017-08-21T10:26:27.833Z,5.20
2017-08-21T10:28:55.597Z,3.10
2017-08-21T10:31:23.239Z,3.57
2017-08-21T10:33:50.934Z,3.83
2017-08-21T10:36:18.626Z,3.50
2017-08-21T10:38:46.277Z,3.50
2017-08-21T10:41:13.931Z,3.63
2017-08-21T10:43:41.534Z,4.00
2017-08-21T10:46:09.146Z,4.20
2017-08-21T10:48:36.780Z,4.20
2017-08-21T10:51:04.384Z,3.73
2017-08-21T10:53:32.438Z,3.80
2017-08-21T10:56:00.204Z,3.67
2017-08-21T10:58:28.478Z,3.70
2017-08-21T11:00:56.058Z,4.43
2017-08-21T11:03:23.695Z,3.47
2017-08-21T11:05:52.207Z,4.00
2017-08-21T11:08:20.896Z,4.03
2017-08-21T11:10:48.780Z,4.00
2017-08-21T11:13:16.430Z,3.50
2017-08-21T11:15:44.069Z,3.60
2017-08-21T11:18:11.680Z,3.67
2017-08-21T11:20:40.303Z,3.80
2017-08-21T11:23:07.935Z,3.47
2017-08-21T11:25:35.522Z,3.50
2017-08-21T11:28:03.171Z,3.57
2017-08-21T11:30:30.799Z,3.83
2017-08-21T11:32:59.317Z,3.20
2017-08-21T11:35:26.955Z,3.10
2017-08-21T11:37:54.571Z,3.60
2017-08-21T11:40:22.172Z,3.10
2017-08-21T11:42:49.827Z,2.90
2017-08-21T11:45:17.486Z,3.90
2017-08-21T11:47:45.091Z,3.27
2017-08-21T11:50:12.721Z,3.33
2017-08-21T11:52:40.326Z,2.80
2017-08-21T11:55:08.413Z,2.87
2017-08-21T11:57:36.049Z,3.50
2017-08-21T12:00:03.690Z,3.43
2017-08-21T12:02:31.321Z,3.23
2017-08-21T12:04:58.999Z,3.07
2017-08-21T12:07:26.646Z,3.40
2017-08-21T12:09:54.222Z,3.53
2017-08-21T12:12:22.458Z,3.63
2017-08-21T12:14:50.139Z,3.27
2017-08-21T12:17:17.761Z,3.10
2017-08-21T12:19:45.488Z,3.10
2017-08-21T12:22:13.075Z,3.10
2017-08-21T12:24:40.731Z,3.63
2017-08-21T12:27:08.370Z,3.50
2017-08-21T12:29:36.001Z,2.90
2017-08-21T12:32:03.712Z,3.30
2017-08-21T12:34:31.338Z,3.40
2017-08-21T12:36:59.258Z,3.20
2017-08-21T12:39:27.162Z,3.20
2017-08-21T12:41:55.090Z,3.40
2017-08-21T12:44:22.806Z,2.80
2017-08-21T12:46:50.645Z,3.37
2017-08-21T12:49:20.123Z,3.47
2017-08-21T12:51:49.768Z,3.40
2017-08-21T12:54:17.461Z,3.93
2017-08-21T12:56:45.041Z,3.30
2017-08-21T12:59:12.918Z,3.60
2017-08-21T13:01:40.950Z,3.37
2017-08-21T13:04:08.850Z,3.50
2017-08-21T13:06:36.565Z,4.47
2017-08-21T13:09:04.425Z,3.30
2017-08-21T13:11:34.767Z,2.90
2017-08-21T13:14:02.433Z,3.30
2017-08-21T13:16:30.082Z,3.27
2017-08-21T13:18:57.730Z,3.47
2017-08-21T13:21:25.342Z,3.10
2017-08-21T13:23:53.160Z,3.10
2017-08-21T13:26:20.850Z,3.57
2017-08-21T13:28:48.493Z,3.33
2017-08-21T13:31:16.272Z,3.13
2017-08-21T13:33:43.979Z,3.37
2017-08-21T13:36:11.943Z,3.37
2017-08-21T13:38:39.768Z,3.30
2017-08-21T13:41:08.071Z,3.50
2017-08-21T13:43:35.812Z,4.00
2017-08-21T13:46:03.440Z,3.17
2017-08-21T13:48:31.119Z,3.50
2017-08-21T13:50:58.729Z,3.33
2017-08-21T13:53:26.356Z,3.27
2017-08-21T13:55:53.993Z,3.30
2017-08-21T13:58:21.667Z,3.60
2017-08-21T14:00:49.319Z,3.80
2017-08-21T14:03:16.979Z,3.80
2017-08-21T14:05:44.635Z,3.93
2017-08-21T14:08:12.230Z,3.70
2017-08-21T14:10:39.855Z,3.80
2017-08-21T14:13:07.488Z,4.23
2017-08-21T14:15:35.103Z,4.30
2017-08-21T14:18:03.024Z,3.53
2017-08-21T14:20:30.663Z,3.40
2017-08-21T14:22:58.271Z,3.67
2017-08-21T14:25:25.872Z,3.30
2017-08-21T14:27:54.500Z,3.30
2017-08-21T14:30:22.090Z,3.40
2017-08-21T14:32:49.718Z,3.47
2017-08-21T14:35:17.391Z,3.00
2017-08-21T14:37:45.001Z,4.10
2017-08-21T14:40:12.618Z,3.50
2017-08-21T14:42:40.245Z,3.10
2017-08-21T14:45:08.095Z,3.70
2017-08-21T14:47:35.942Z,3.50
2017-08-21T14:50:03.873Z,3.57
2017-08-21T14:52:31.555Z,3.57
2017-08-21T14:54:59.184Z,3.50
2017-08-21T14:57:26.872Z,3.50
2017-08-21T14:59:54.490Z,4.20
2017-08-21T15:02:22.078Z,3.33
2017-08-21T15:04:49.759Z,3.17
2017-08-21T15:07:17.381Z,3.17
2017-08-21T15:09:45.009Z,3.90
2017-08-21T15:12:12.629Z,3.40
2017-08-21T15:14:40.237Z,3.47
2017-08-21T15:17:08.210Z,3.70
2017-08-21T15:19:35.845Z,3.50
2017-08-21T15:22:03.488Z,3.23
2017-08-21T15:24:31.084Z,3.53
2017-08-21T15:26:58.703Z,3.40
2017-08-21T15:29:27.022Z,3.17
2017-08-21T15:31:54.670Z,3.20
2017-08-21T15:34:22.924Z,3.70
2017-08-21T15:36:50.567Z,3.17
2017-08-21T15:39:18.191Z,2.97
2017-08-21T15:41:45.851Z,3.20
2017-08-21T15:44:13.477Z,3.30
2017-08-21T15:46:41.065Z,3.10
2017-08-21T15:49:08.685Z,3.33
2017-08-21T15:51:36.305Z,3.30
2017-08-21T15:54:03.956Z,3.47
2017-08-21T15:56:32.142Z,3.00
2017-08-21T15:58:59.769Z,3.30
2017-08-21T16:01:27.479Z,3.80
2017-08-21T16:03:55.111Z,3.30
2017-08-21T16:06:22.700Z,3.27
2017-08-21T16:08:50.360Z,3.80
2017-08-21T16:11:17.967Z,3.03
2017-08-21T16:13:45.559Z,3.47
2017-08-21T16:16:13.268Z,3.03
2017-08-21T16:18:40.881Z,3.10
2017-08-21T16:21:08.504Z,3.10
2017-08-21T16:23:37.107Z,3.00
2017-08-21T16:26:04.798Z,3.60
2017-08-21T16:28:32.536Z,2.90
2017-08-21T16:31:00.192Z,3.27
2017-08-21T16:33:27.850Z,3.20
2017-08-21T16:35:56.398Z,3.53
2017-08-21T16:38:25.035Z,2.93
2017-08-21T16:40:52.776Z,2.90
2017-08-21T16:43:20.437Z,2.97
2017-08-21T16:45:48.308Z,3.10
2017-08-21T16:48:15.958Z,3.50
2017-08-21T16:50:43.590Z,3.17
2017-08-21T16:53:11.261Z,3.00
2017-08-21T16:55:39.291Z,3.33
2017-08-21T16:58:07.192Z,3.10
2017-08-21T17:00:34.855Z,3.00
2017-08-21T17:03:02.647Z,3.13
2017-08-21T17:05:30.329Z,3.40
2017-08-21T17:07:58.413Z,3.27
2017-08-21T17:10:26.384Z,4.30
2017-08-21T17:12:54.103Z,2.80
2017-08-21T17:15:22.024Z,2.87
2017-08-21T17:17:49.882Z,4.20
2017-08-21T17:20:17.790Z,3.00
2017-08-21T17:22:45.626Z,3.13
2017-08-21T17:25:13.598Z,3.17
2017-08-21T17:27:43.356Z,3.73
2017-08-21T17:30:11.377Z,3.30
2017-08-21T17:32:39.343Z,3.00
2017-08-21T17:35:07.088Z,2.40
2017-08-21T17:37:36.438Z,4.20
2017-08-21T17:40:04.959Z,2.80
2017-08-21T17:42:32.798Z,2.90
2017-08-21T17:45:02.357Z,2.90
2017-08-21T17:47:30.289Z,3.13
2017-08-21T17:49:58.837Z,2.70
2017-08-21T17:52:28.144Z,2.90
2017-08-21T17:54:55.762Z,2.80
2017-08-21T17:57:23.497Z,2.90
2017-08-21T17:59:51.348Z,3.10
2017-08-21T18:02:19.233Z,3.40
2017-08-21T18:04:46.920Z,3.20
2017-08-21T18:07:15.364Z,3.17
2017-08-21T18:09:43.156Z,3.83
2017-08-21T18:12:11.360Z,3.73
2017-08-21T18:14:39.251Z,2.83
2017-08-21T18:17:06.846Z,2.77
2017-08-21T18:19:34.568Z,3.30
2017-08-21T18:22:02.202Z,2.97
2017-08-21T18:24:29.836Z,3.13
2017-08-21T18:26:57.476Z,2.70
2017-08-21T18:29:25.113Z,3.17
2017-08-21T18:31:52.752Z,3.00
2017-08-21T18:34:21.357Z,3.13
2017-08-21T18:36:49.018Z,2.80
2017-08-21T18:39:18.249Z,3.10
2017-08-21T18:41:45.956Z,2.77
2017-08-21T18:44:14.028Z,2.73
2017-08-21T18:46:42.050Z,3.37
2017-08-21T18:49:12.282Z,2.63
2017-08-21T18:51:40.585Z,2.93
2017-08-21T18:54:08.946Z,2.80
2017-08-21T18:56:36.839Z,3.73
2017-08-21T18:59:05.435Z,3.30
2017-08-21T19:01:33.098Z,3.27
2017-08-21T19:04:00.746Z,2.63
2017-08-21T19:06:28.338Z,3.37
2017-08-21T19:08:55.974Z,3.47
2017-08-21T19:11:23.573Z,3.43
2017-08-21T19:13:51.160Z,4.00
2017-08-21T19:16:18.758Z,3.90
2017-08-21T19:18:46.372Z,3.80
2017-08-21T19:21:16.573Z,3.20
2017-08-21T19:23:44.384Z,3.27
2017-08-21T19:26:12.482Z,3.03
2017-08-21T19:28:40.087Z,3.40
2017-08-21T19:31:07.863Z,3.47
2017-08-21T19:33:35.804Z,4.17
2017-08-21T19:36:03.512Z,3.17
2017-08-21T19:38:31.138Z,2.97
2017-08-21T19:40:58.779Z,3.03
2017-08-21T19:43:26.585Z,3.90
2017-08-21T19:45:54.191Z,3.90
2017-08-21T19:48:21.772Z,3.53
2017-08-21T19:50:49.429Z,3.10
2017-08-21T19:53:17.066Z,3.60
2017-08-21T19:55:44.717Z,2.77
2017-08-21T19:58:12.369Z,3.77
2017-08-21T20:00:40.008Z,4.07
2017-08-21T20:03:07.631Z,3.17
2017-08-21T20:05:35.221Z,3.73
2017-08-21T20:08:02.819Z,3.63
2017-08-21T20:10:30.446Z,2.97
2017-08-21T20:12:58.068Z,3.27
2017-08-21T20:15:25.678Z,4.20
2017-08-21T20:17:53.291Z,3.83
2017-08-21T20:20:20.940Z,3.67
2017-08-21T20:22:48.545Z,3.73
2017-08-21T20:25:16.205Z,4.27
2017-08-21T20:27:43.820Z,4.37
2017-08-21T20:30:11.599Z,3.53
2017-08-21T20:32:39.226Z,4.47
2017-08-21T20:35:06.821Z,5.40
2017-08-21T20:37:34.453Z,3.90
2017-08-21T20:40:02.067Z,4.30
2017-08-21T20:42:29.682Z,4.53
2017-08-21T20:44:57.293Z,4.57
2017-08-21T20:47:24.910Z,4.13
2017-08-21T20:49:52.512Z,4.70
2017-08-21T20:52:20.101Z,5.30
2017-08-21T20:54:47.719Z,5.30
2017-08-21T20:57:15.328Z,4.60
2017-08-21T20:59:42.992Z,5.33
2017-08-21T21:02:10.589Z,5.40
2017-08-21T21:04:39.574Z,5.40
2017-08-21T21:07:07.153Z,5.20
2017-08-21T21:09:34.774Z,5.27
2017-08-21T21:12:02.414Z,5.20
2017-08-21T21:14:30.031Z,5.47
2017-08-21T21:16:57.641Z,5.00
2017-08-21T21:19:25.246Z,5.43
2017-08-21T21:21:52.853Z,5.20
2017-08-21T21:24:21.100Z,4.93
2017-08-21T21:26:48.737Z,5.50
2017-08-21T21:29:16.502Z,5.20
2017-08-21T21:31:44.079Z,7.00
2017-08-21T21:34:16.847Z,5.20
2017-08-21T21:36:48.998Z,4.73
2017-08-21T21:39:22.244Z,4.80
2017-08-21T21:42:02.829Z,5.33
2017-08-21T21:44:31.025Z,5.37
2017-08-21T21:46:58.623Z,6.23
2017-08-21T21:49:26.249Z,5.93
2017-08-21T21:51:53.848Z,6.10
2017-08-21T21:54:21.497Z,6.13
2017-08-21T21:56:49.110Z,6.27
2017-08-21T21:59:16.706Z,4.93
2017-08-21T22:01:44.333Z,5.67
2017-08-21T22:04:12.057Z,5.70
2017-08-21T22:06:41.128Z,5.80
2017-08-21T22:09:08.750Z,5.77
2017-08-21T22:11:36.420Z,5.63
2017-08-21T22:14:04.067Z,5.43
2017-08-21T22:16:31.693Z,5.90
2017-08-21T22:18:59.311Z,6.10
2017-08-21T22:21:26.932Z,6.67
2017-08-21T22:23:54.550Z,6.00
2017-08-21T22:26:22.143Z,6.00
2017-08-21T22:28:49.743Z,6.37
2017-08-21T22:31:17.423Z,5.67
2017-08-21T22:33:45.080Z,5.77
2017-08-21T22:36:12.703Z,5.60
2017-08-21T22:38:40.310Z,6.30
2017-08-21T22:41:07.942Z,5.70
2017-08-21T22:43:35.558Z,5.50
2017-08-21T22:46:03.154Z,5.90
2017-08-21T22:48:30.777Z,6.37
2017-08-21T22:51:00.684Z,6.37
2017-08-21T22:53:28.294Z,5.93
2017-08-21T22:55:55.906Z,5.90
2017-08-21T22:58:24.007Z,5.33
2017-08-21T23:00:51.661Z,5.47
2017-08-21T23:03:19.269Z,5.57
2017-08-21T23:05:46.872Z,6.07
2017-08-21T23:08:14.449Z,5.90
2017-08-21T23:10:42.067Z,5.57
2017-08-21T23:13:09.651Z,6.17
2017-08-21T23:15:37.243Z,5.50
2017-08-21T23:18:04.862Z,6.00
2017-08-21T23:20:32.447Z,7.00
2017-08-21T23:23:00.053Z,6.00
2017-08-21T23:25:27.649Z,5.60
2017-08-21T23:27:55.216Z,5.80
2017-08-21T23:30:22.810Z,4.97
2017-08-21T23:32:50.445Z,6.00
2017-08-21T23:35:18.060Z,6.00
2017-08-21T23:37:45.690Z,5.70
2017-08-21T23:40:13.267Z,6.00
2017-08-21T23:42:41.892Z,5.43
2017-08-21T23:45:09.488Z,6.33
2017-08-21T23:47:37.064Z,5.70
2017-08-21T23:50:04.609Z,6.00
2017-08-21T23:52:32.230Z,6.13
2017-08-21T23:54:59.802Z,6.87
2017-08-21T23:57:27.369Z,6.33
2017-08-21T23:59:54.895Z,6.10
